sensor_id;sensor_type;location;lat;lon;timestamp;P1;durP1;ratioP1;P2;durP2;ratioP2
22160;SDS011;49035;48.812;11.762;2022-11-06T00:01:03;20.47;;;11.00;;
22160;SDS011;49035;48.812;11.762;2022-11-06T00:03:33;25.43;;;11.53;;
22160;SDS011;49035;48.812;11.762;2022-11-06T00:05:58;29.80;;;13.43;;
22160;SDS011;49035;48.812;11.762;2022-11-06T00:08:43;29.20;;;13.67;;
22160;SDS011;49035;48.812;11.762;2022-11-06T00:11:13;31.73;;;14.47;;
22160;SDS011;49035;48.812;11.762;2022-11-06T00:13:40;37.10;;;14.27;;
22160;SDS011;49035;48.812;11.762;2022-11-06T00:16:07;37.27;;;15.93;;
22160;SDS011;49035;48.812;11.762;2022-11-06T00:18:34;48.20;;;16.67;;
22160;SDS011;49035;48.812;11.762;2022-11-06T00:21:07;40.40;;;16.77;;
22160;SDS011;49035;48.812;11.762;2022-11-06T00:23:44;47.23;;;16.20;;
22160;SDS011;49035;48.812;11.762;2022-11-06T00:26:15;39.93;;;16.60;;
22160;SDS011;49035;48.812;11.762;2022-11-06T00:28:42;50.47;;;17.60;;
22160;SDS011;49035;48.812;11.762;2022-11-06T00:31:10;36.03;;;15.97;;
22160;SDS011;49035;48.812;11.762;2022-11-06T00:33:38;39.03;;;16.63;;
22160;SDS011;49035;48.812;11.762;2022-11-06T00:36:07;29.63;;;14.70;;
22160;SDS011;49035;48.812;11.762;2022-11-06T00:38:38;62.63;;;15.77;;
22160;SDS011;49035;48.812;11.762;2022-11-06T00:41:04;53.80;;;17.30;;
22160;SDS011;49035;48.812;11.762;2022-11-06T00:43:34;37.30;;;16.67;;
22160;SDS011;49035;48.812;11.762;2022-11-06T00:46:03;50.47;;;20.57;;
22160;SDS011;49035;48.812;11.762;2022-11-06T00:48:33;146.83;;;25.07;;
22160;SDS011;49035;48.812;11.762;2022-11-06T00:51:03;61.73;;;22.43;;
22160;SDS011;49035;48.812;11.762;2022-11-06T00:53:40;64.30;;;22.37;;
22160;SDS011;49035;48.812;11.762;2022-11-06T00:56:07;58.93;;;21.40;;
22160;SDS011;49035;48.812;11.762;2022-11-06T00:58:34;98.17;;;24.50;;
22160;SDS011;49035;48.812;11.762;2022-11-06T01:01:04;65.37;;;21.73;;
22160;SDS011;49035;48.812;11.762;2022-11-06T01:03:40;62.83;;;21.50;;
22160;SDS011;49035;48.812;11.762;2022-11-06T01:06:18;79.90;;;23.43;;
22160;SDS011;49035;48.812;11.762;2022-11-06T01:08:45;64.00;;;20.83;;
22160;SDS011;49035;48.812;11.762;2022-11-06T01:11:21;64.37;;;21.73;;
22160;SDS011;49035;48.812;11.762;2022-11-06T01:13:53;60.73;;;20.83;;
22160;SDS011;49035;48.812;11.762;2022-11-06T01:16:22;65.23;;;20.73;;
22160;SDS011;49035;48.812;11.762;2022-11-06T01:18:48;68.57;;;20.90;;
22160;SDS011;49035;48.812;11.762;2022-11-06T01:21:15;72.17;;;21.33;;
22160;SDS011;49035;48.812;11.762;2022-11-06T01:23:53;54.83;;;20.17;;
22160;SDS011;49035;48.812;11.762;2022-11-06T01:26:20;55.33;;;19.17;;
22160;SDS011;49035;48.812;11.762;2022-11-06T01:28:46;140.67;;;21.77;;
22160;SDS011;49035;48.812;11.762;2022-11-06T01:31:13;111.33;;;21.40;;
22160;SDS011;49035;48.812;11.762;2022-11-06T01:33:41;94.03;;;20.87;;
22160;SDS011;49035;48.812;11.762;2022-11-06T01:36:11;119.13;;;21.30;;
22160;SDS011;49035;48.812;11.762;2022-11-06T01:38:44;63.33;;;20.53;;
22160;SDS011;49035;48.812;11.762;2022-11-06T01:41:12;99.60;;;20.43;;
22160;SDS011;49035;48.812;11.762;2022-11-06T01:43:55;72.60;;;18.33;;
22160;SDS011;49035;48.812;11.762;2022-11-06T01:46:27;70.13;;;20.47;;
22160;SDS011;49035;48.812;11.762;2022-11-06T01:51:26;130.77;;;20.17;;
22160;SDS011;49035;48.812;11.762;2022-11-06T01:53:53;55.10;;;19.70;;
22160;SDS011;49035;48.812;11.762;2022-11-06T01:56:21;148.73;;;23.73;;
22160;SDS011;49035;48.812;11.762;2022-11-06T01:58:48;50.93;;;18.73;;
22160;SDS011;49035;48.812;11.762;2022-11-06T02:01:16;45.23;;;17.40;;
22160;SDS011;49035;48.812;11.762;2022-11-06T02:03:44;41.40;;;17.33;;
22160;SDS011;49035;48.812;11.762;2022-11-06T02:06:26;42.40;;;15.23;;
22160;SDS011;49035;48.812;11.762;2022-11-06T02:08:53;32.97;;;13.93;;
22160;SDS011;49035;48.812;11.762;2022-11-06T02:11:19;119.80;;;19.80;;
22160;SDS011;49035;48.812;11.762;2022-11-06T02:13:49;198.17;;;22.47;;
22160;SDS011;49035;48.812;11.762;2022-11-06T02:16:36;54.33;;;18.80;;
22160;SDS011;49035;48.812;11.762;2022-11-06T02:19:28;149.30;;;20.73;;
22160;SDS011;49035;48.812;11.762;2022-11-06T02:28:13;156.40;;;21.20;;
22160;SDS011;49035;48.812;11.762;2022-11-06T02:30:59;66.70;;;19.03;;
22160;SDS011;49035;48.812;11.762;2022-11-06T02:33:31;171.13;;;22.40;;
22160;SDS011;49035;48.812;11.762;2022-11-06T02:36:02;187.17;;;21.70;;
22160;SDS011;49035;48.812;11.762;2022-11-06T02:38:32;55.20;;;17.53;;
22160;SDS011;49035;48.812;11.762;2022-11-06T02:41:03;58.43;;;19.73;;
22160;SDS011;49035;48.812;11.762;2022-11-06T02:43:41;61.73;;;19.73;;
22160;SDS011;49035;48.812;11.762;2022-11-06T02:46:21;47.37;;;16.87;;
22160;SDS011;49035;48.812;11.762;2022-11-06T02:48:58;58.83;;;18.03;;
22160;SDS011;49035;48.812;11.762;2022-11-06T02:51:30;51.10;;;18.33;;
22160;SDS011;49035;48.812;11.762;2022-11-06T02:54:01;49.93;;;17.53;;
22160;SDS011;49035;48.812;11.762;2022-11-06T02:56:34;46.07;;;17.00;;
22160;SDS011;49035;48.812;11.762;2022-11-06T02:59:05;61.93;;;17.57;;
22160;SDS011;49035;48.812;11.762;2022-11-06T03:01:54;44.70;;;16.17;;
22160;SDS011;49035;48.812;11.762;2022-11-06T03:04:34;156.83;;;18.50;;
22160;SDS011;49035;48.812;11.762;2022-11-06T03:07:09;43.40;;;15.70;;
22160;SDS011;49035;48.812;11.762;2022-11-06T03:09:43;50.87;;;16.50;;
22160;SDS011;49035;48.812;11.762;2022-11-06T03:17:51;65.33;;;19.53;;
22160;SDS011;49035;48.812;11.762;2022-11-06T03:20:34;45.13;;;18.47;;
22160;SDS011;49035;48.812;11.762;2022-11-06T03:23:12;45.83;;;17.57;;
22160;SDS011;49035;48.812;11.762;2022-11-06T03:30:54;52.67;;;19.03;;
22160;SDS011;49035;48.812;11.762;2022-11-06T03:33:39;49.90;;;18.30;;
22160;SDS011;49035;48.812;11.762;2022-11-06T03:36:12;42.70;;;16.90;;
22160;SDS011;49035;48.812;11.762;2022-11-06T03:38:44;47.83;;;18.13;;
22160;SDS011;49035;48.812;11.762;2022-11-06T03:41:27;43.43;;;17.77;;
22160;SDS011;49035;48.812;11.762;2022-11-06T03:43:58;46.00;;;18.63;;
22160;SDS011;49035;48.812;11.762;2022-11-06T03:46:27;96.60;;;19.83;;
22160;SDS011;49035;48.812;11.762;2022-11-06T03:48:57;54.40;;;18.70;;
22160;SDS011;49035;48.812;11.762;2022-11-06T03:51:36;62.53;;;19.37;;
22160;SDS011;49035;48.812;11.762;2022-11-06T03:54:10;64.23;;;20.53;;
22160;SDS011;49035;48.812;11.762;2022-11-06T03:57:03;53.37;;;18.90;;
22160;SDS011;49035;48.812;11.762;2022-11-06T03:59:38;51.23;;;18.93;;
22160;SDS011;49035;48.812;11.762;2022-11-06T04:02:12;57.37;;;20.10;;
22160;SDS011;49035;48.812;11.762;2022-11-06T04:04:42;62.00;;;19.97;;
22160;SDS011;49035;48.812;11.762;2022-11-06T04:07:15;52.10;;;18.97;;
22160;SDS011;49035;48.812;11.762;2022-11-06T04:09:48;50.30;;;18.33;;
22160;SDS011;49035;48.812;11.762;2022-11-06T04:12:37;60.40;;;19.60;;
22160;SDS011;49035;48.812;11.762;2022-11-06T04:15:24;46.10;;;19.80;;
22160;SDS011;49035;48.812;11.762;2022-11-06T04:17:54;52.37;;;19.03;;
22160;SDS011;49035;48.812;11.762;2022-11-06T04:20:20;69.27;;;20.23;;
22160;SDS011;49035;48.812;11.762;2022-11-06T04:23:19;70.73;;;20.10;;
22160;SDS011;49035;48.812;11.762;2022-11-06T04:28:55;71.73;;;19.47;;
22160;SDS011;49035;48.812;11.762;2022-11-06T04:34:37;67.70;;;20.10;;
22160;SDS011;49035;48.812;11.762;2022-11-06T04:45:13;66.00;;;19.43;;
22160;SDS011;49035;48.812;11.762;2022-11-06T04:47:45;60.87;;;18.40;;
22160;SDS011;49035;48.812;11.762;2022-11-06T04:50:12;59.47;;;17.30;;
22160;SDS011;49035;48.812;11.762;2022-11-06T04:52:41;135.77;;;20.50;;
22160;SDS011;49035;48.812;11.762;2022-11-06T04:55:08;49.17;;;17.63;;
22160;SDS011;49035;48.812;11.762;2022-11-06T04:57:33;57.97;;;18.33;;
22160;SDS011;49035;48.812;11.762;2022-11-06T04:59:59;56.80;;;17.67;;
22160;SDS011;49035;48.812;11.762;2022-11-06T05:02:25;59.33;;;17.10;;
22160;SDS011;49035;48.812;11.762;2022-11-06T05:04:50;68.73;;;17.57;;
22160;SDS011;49035;48.812;11.762;2022-11-06T05:07:16;62.07;;;18.60;;
22160;SDS011;49035;48.812;11.762;2022-11-06T05:09:42;60.57;;;17.47;;
22160;SDS011;49035;48.812;11.762;2022-11-06T05:12:09;66.70;;;17.37;;
22160;SDS011;49035;48.812;11.762;2022-11-06T05:14:34;74.80;;;17.57;;
22160;SDS011;49035;48.812;11.762;2022-11-06T05:17:00;61.37;;;15.93;;
22160;SDS011;49035;48.812;11.762;2022-11-06T05:19:26;68.80;;;17.00;;
22160;SDS011;49035;48.812;11.762;2022-11-06T05:21:51;59.80;;;16.87;;
22160;SDS011;49035;48.812;11.762;2022-11-06T05:24:35;68.97;;;16.70;;
22160;SDS011;49035;48.812;11.762;2022-11-06T05:27:01;45.90;;;14.17;;
22160;SDS011;49035;48.812;11.762;2022-11-06T05:29:27;49.97;;;15.10;;
22160;SDS011;49035;48.812;11.762;2022-11-06T05:31:52;65.00;;;16.40;;
22160;SDS011;49035;48.812;11.762;2022-11-06T05:34:18;44.77;;;13.70;;
22160;SDS011;49035;48.812;11.762;2022-11-06T05:36:44;48.23;;;15.70;;
22160;SDS011;49035;48.812;11.762;2022-11-06T05:39:10;42.17;;;14.30;;
22160;SDS011;49035;48.812;11.762;2022-11-06T05:41:36;56.10;;;15.77;;
22160;SDS011;49035;48.812;11.762;2022-11-06T05:44:01;39.47;;;13.73;;
22160;SDS011;49035;48.812;11.762;2022-11-06T05:46:27;47.50;;;14.67;;
22160;SDS011;49035;48.812;11.762;2022-11-06T05:48:53;36.60;;;13.67;;
22160;SDS011;49035;48.812;11.762;2022-11-06T05:51:18;45.40;;;14.40;;
22160;SDS011;49035;48.812;11.762;2022-11-06T05:53:44;40.10;;;14.30;;
22160;SDS011;49035;48.812;11.762;2022-11-06T05:56:10;44.90;;;15.63;;
22160;SDS011;49035;48.812;11.762;2022-11-06T05:58:35;46.57;;;13.83;;
22160;SDS011;49035;48.812;11.762;2022-11-06T06:01:01;31.30;;;12.70;;
22160;SDS011;49035;48.812;11.762;2022-11-06T06:03:27;41.10;;;12.80;;
22160;SDS011;49035;48.812;11.762;2022-11-06T06:05:53;46.13;;;13.70;;
22160;SDS011;49035;48.812;11.762;2022-11-06T06:08:18;45.30;;;12.13;;
22160;SDS011;49035;48.812;11.762;2022-11-06T06:10:44;51.57;;;11.67;;
22160;SDS011;49035;48.812;11.762;2022-11-06T06:13:11;32.87;;;12.63;;
22160;SDS011;49035;48.812;11.762;2022-11-06T06:15:37;38.70;;;12.37;;
22160;SDS011;49035;48.812;11.762;2022-11-06T06:18:04;40.13;;;12.90;;
22160;SDS011;49035;48.812;11.762;2022-11-06T06:20:30;36.00;;;12.00;;
22160;SDS011;49035;48.812;11.762;2022-11-06T06:22:56;41.03;;;12.63;;
22160;SDS011;49035;48.812;11.762;2022-11-06T06:25:26;53.07;;;13.63;;
22160;SDS011;49035;48.812;11.762;2022-11-06T06:27:52;40.20;;;12.87;;
22160;SDS011;49035;48.812;11.762;2022-11-06T06:30:18;50.57;;;13.53;;
22160;SDS011;49035;48.812;11.762;2022-11-06T06:32:45;47.07;;;13.13;;
22160;SDS011;49035;48.812;11.762;2022-11-06T06:35:10;36.30;;;12.87;;
22160;SDS011;49035;48.812;11.762;2022-11-06T06:37:36;38.03;;;13.60;;
22160;SDS011;49035;48.812;11.762;2022-11-06T06:40:02;49.03;;;16.90;;
22160;SDS011;49035;48.812;11.762;2022-11-06T06:42:28;45.27;;;12.83;;
22160;SDS011;49035;48.812;11.762;2022-11-06T06:44:54;45.63;;;14.47;;
22160;SDS011;49035;48.812;11.762;2022-11-06T06:47:20;36.37;;;13.43;;
22160;SDS011;49035;48.812;11.762;2022-11-06T06:49:46;47.60;;;13.90;;
22160;SDS011;49035;48.812;11.762;2022-11-06T06:52:12;32.83;;;13.23;;
22160;SDS011;49035;48.812;11.762;2022-11-06T06:54:37;42.50;;;12.87;;
22160;SDS011;49035;48.812;11.762;2022-11-06T06:57:04;43.33;;;13.43;;
22160;SDS011;49035;48.812;11.762;2022-11-06T06:59:31;47.20;;;12.77;;
22160;SDS011;49035;48.812;11.762;2022-11-06T07:01:57;46.27;;;13.50;;
22160;SDS011;49035;48.812;11.762;2022-11-06T07:04:22;40.67;;;12.67;;
22160;SDS011;49035;48.812;11.762;2022-11-06T07:06:48;70.83;;;15.50;;
22160;SDS011;49035;48.812;11.762;2022-11-06T07:09:16;41.07;;;12.60;;
22160;SDS011;49035;48.812;11.762;2022-11-06T07:11:42;37.40;;;12.57;;
22160;SDS011;49035;48.812;11.762;2022-11-06T07:14:08;41.37;;;15.30;;
22160;SDS011;49035;48.812;11.762;2022-11-06T07:16:34;33.17;;;14.73;;
22160;SDS011;49035;48.812;11.762;2022-11-06T07:19:00;41.03;;;12.97;;
22160;SDS011;49035;48.812;11.762;2022-11-06T07:21:26;42.90;;;13.53;;
22160;SDS011;49035;48.812;11.762;2022-11-06T07:23:51;38.73;;;13.57;;
22160;SDS011;49035;48.812;11.762;2022-11-06T07:26:17;28.07;;;11.77;;
22160;SDS011;49035;48.812;11.762;2022-11-06T07:28:42;28.13;;;11.63;;
22160;SDS011;49035;48.812;11.762;2022-11-06T07:31:08;48.13;;;14.07;;
22160;SDS011;49035;48.812;11.762;2022-11-06T07:33:36;30.10;;;12.90;;
22160;SDS011;49035;48.812;11.762;2022-11-06T07:36:03;33.03;;;15.03;;
22160;SDS011;49035;48.812;11.762;2022-11-06T07:38:31;38.70;;;15.10;;
22160;SDS011;49035;48.812;11.762;2022-11-06T07:41:06;31.70;;;14.03;;
22160;SDS011;49035;48.812;11.762;2022-11-06T07:43:33;57.93;;;14.23;;
22160;SDS011;49035;48.812;11.762;2022-11-06T07:46:00;36.57;;;14.57;;
22160;SDS011;49035;48.812;11.762;2022-11-06T07:48:30;34.97;;;14.27;;
22160;SDS011;49035;48.812;11.762;2022-11-06T07:50:57;46.63;;;14.00;;
22160;SDS011;49035;48.812;11.762;2022-11-06T07:53:23;34.10;;;13.53;;
22160;SDS011;49035;48.812;11.762;2022-11-06T07:55:49;29.93;;;14.00;;
22160;SDS011;49035;48.812;11.762;2022-11-06T07:58:15;30.97;;;13.17;;
22160;SDS011;49035;48.812;11.762;2022-11-06T08:00:48;33.30;;;14.37;;
22160;SDS011;49035;48.812;11.762;2022-11-06T08:03:15;27.63;;;13.10;;
22160;SDS011;49035;48.812;11.762;2022-11-06T08:05:41;26.53;;;12.93;;
22160;SDS011;49035;48.812;11.762;2022-11-06T08:08:07;28.97;;;14.20;;
22160;SDS011;49035;48.812;11.762;2022-11-06T08:10:32;27.37;;;13.53;;
22160;SDS011;49035;48.812;11.762;2022-11-06T08:13:01;30.10;;;14.30;;
22160;SDS011;49035;48.812;11.762;2022-11-06T08:15:27;25.27;;;12.83;;
22160;SDS011;49035;48.812;11.762;2022-11-06T08:17:53;31.00;;;13.77;;
22160;SDS011;49035;48.812;11.762;2022-11-06T08:20:18;31.80;;;14.77;;
22160;SDS011;49035;48.812;11.762;2022-11-06T08:22:44;29.93;;;13.77;;
22160;SDS011;49035;48.812;11.762;2022-11-06T08:25:09;26.80;;;13.97;;
22160;SDS011;49035;48.812;11.762;2022-11-06T08:27:35;27.70;;;14.70;;
22160;SDS011;49035;48.812;11.762;2022-11-06T08:30:01;28.33;;;12.83;;
22160;SDS011;49035;48.812;11.762;2022-11-06T08:32:28;27.93;;;14.23;;
22160;SDS011;49035;48.812;11.762;2022-11-06T08:34:53;25.97;;;14.37;;
22160;SDS011;49035;48.812;11.762;2022-11-06T08:37:19;26.00;;;14.13;;
22160;SDS011;49035;48.812;11.762;2022-11-06T08:39:45;25.67;;;12.97;;
22160;SDS011;49035;48.812;11.762;2022-11-06T08:42:10;24.90;;;13.67;;
22160;SDS011;49035;48.812;11.762;2022-11-06T08:44:36;25.00;;;13.93;;
22160;SDS011;49035;48.812;11.762;2022-11-06T08:47:01;25.20;;;13.83;;
22160;SDS011;49035;48.812;11.762;2022-11-06T08:49:27;23.27;;;13.23;;
22160;SDS011;49035;48.812;11.762;2022-11-06T08:51:53;23.83;;;12.95;;
22160;SDS011;49035;48.812;11.762;2022-11-06T08:54:18;21.53;;;12.37;;
22160;SDS011;49035;48.812;11.762;2022-11-06T08:56:44;21.17;;;13.07;;
22160;SDS011;49035;48.812;11.762;2022-11-06T08:59:10;26.23;;;13.77;;
22160;SDS011;49035;48.812;11.762;2022-11-06T09:01:36;21.98;;;13.05;;
22160;SDS011;49035;48.812;11.762;2022-11-06T09:04:01;22.13;;;14.03;;
22160;SDS011;49035;48.812;11.762;2022-11-06T09:06:27;26.77;;;14.50;;
22160;SDS011;49035;48.812;11.762;2022-11-06T09:08:53;25.63;;;14.40;;
22160;SDS011;49035;48.812;11.762;2022-11-06T09:11:19;25.52;;;14.82;;
22160;SDS011;49035;48.812;11.762;2022-11-06T09:13:45;25.35;;;14.20;;
22160;SDS011;49035;48.812;11.762;2022-11-06T09:16:11;23.83;;;14.50;;
22160;SDS011;49035;48.812;11.762;2022-11-06T09:18:36;21.80;;;13.23;;
22160;SDS011;49035;48.812;11.762;2022-11-06T09:21:02;20.65;;;12.70;;
22160;SDS011;49035;48.812;11.762;2022-11-06T09:23:28;23.70;;;14.57;;
22160;SDS011;49035;48.812;11.762;2022-11-06T09:25:55;20.25;;;12.88;;
22160;SDS011;49035;48.812;11.762;2022-11-06T09:28:21;20.85;;;13.65;;
22160;SDS011;49035;48.812;11.762;2022-11-06T09:30:47;22.50;;;12.70;;
22160;SDS011;49035;48.812;11.762;2022-11-06T09:33:12;21.27;;;12.48;;
22160;SDS011;49035;48.812;11.762;2022-11-06T09:35:38;24.47;;;11.97;;
22160;SDS011;49035;48.812;11.762;2022-11-06T09:45:29;24.67;;;14.03;;
22160;SDS011;49035;48.812;11.762;2022-11-06T09:48:05;23.90;;;14.87;;
22160;SDS011;49035;48.812;11.762;2022-11-06T09:50:50;23.43;;;13.93;;
22160;SDS011;49035;48.812;11.762;2022-11-06T09:53:36;22.63;;;14.03;;
22160;SDS011;49035;48.812;11.762;2022-11-06T09:56:07;21.20;;;13.27;;
22160;SDS011;49035;48.812;11.762;2022-11-06T09:58:37;23.30;;;14.27;;
22160;SDS011;49035;48.812;11.762;2022-11-06T10:01:16;24.53;;;15.10;;
22160;SDS011;49035;48.812;11.762;2022-11-06T10:03:51;23.23;;;15.20;;
22160;SDS011;49035;48.812;11.762;2022-11-06T10:06:21;23.87;;;13.70;;
22160;SDS011;49035;48.812;11.762;2022-11-06T10:08:50;24.47;;;15.17;;
22160;SDS011;49035;48.812;11.762;2022-11-06T10:22:35;22.23;;;14.30;;
22160;SDS011;49035;48.812;11.762;2022-11-06T10:25:08;24.53;;;15.23;;
22160;SDS011;49035;48.812;11.762;2022-11-06T10:27:52;21.42;;;14.77;;
22160;SDS011;49035;48.812;11.762;2022-11-06T10:30:26;22.85;;;14.05;;
22160;SDS011;49035;48.812;11.762;2022-11-06T10:33:22;19.75;;;13.50;;
22160;SDS011;49035;48.812;11.762;2022-11-06T10:36:27;19.67;;;13.80;;
22160;SDS011;49035;48.812;11.762;2022-11-06T10:38:59;21.60;;;14.00;;
22160;SDS011;49035;48.812;11.762;2022-11-06T10:41:29;20.10;;;12.85;;
22160;SDS011;49035;48.812;11.762;2022-11-06T10:44:01;22.73;;;14.05;;
22160;SDS011;49035;48.812;11.762;2022-11-06T10:46:35;23.52;;;14.38;;
22160;SDS011;49035;48.812;11.762;2022-11-06T10:49:05;23.33;;;13.17;;
22160;SDS011;49035;48.812;11.762;2022-11-06T10:58:00;24.20;;;13.82;;
22160;SDS011;49035;48.812;11.762;2022-11-06T11:00:28;22.10;;;15.23;;
22160;SDS011;49035;48.812;11.762;2022-11-06T11:03:03;23.00;;;14.27;;
22160;SDS011;49035;48.812;11.762;2022-11-06T11:05:37;24.65;;;14.30;;
22160;SDS011;49035;48.812;11.762;2022-11-06T11:08:05;22.58;;;13.65;;
22160;SDS011;49035;48.812;11.762;2022-11-06T11:10:35;21.83;;;13.10;;
22160;SDS011;49035;48.812;11.762;2022-11-06T11:13:04;22.10;;;12.80;;
22160;SDS011;49035;48.812;11.762;2022-11-06T11:15:31;20.33;;;12.75;;
22160;SDS011;49035;48.812;11.762;2022-11-06T11:18:24;21.73;;;13.07;;
22160;SDS011;49035;48.812;11.762;2022-11-06T11:21:31;24.00;;;13.35;;
22160;SDS011;49035;48.812;11.762;2022-11-06T11:24:12;19.77;;;12.32;;
22160;SDS011;49035;48.812;11.762;2022-11-06T11:26:38;20.63;;;12.48;;
22160;SDS011;49035;48.812;11.762;2022-11-06T11:29:40;21.05;;;13.40;;
22160;SDS011;49035;48.812;11.762;2022-11-06T11:32:15;23.08;;;14.18;;
22160;SDS011;49035;48.812;11.762;2022-11-06T11:34:44;23.08;;;14.23;;
22160;SDS011;49035;48.812;11.762;2022-11-06T11:40:43;21.33;;;14.40;;
22160;SDS011;49035;48.812;11.762;2022-11-06T11:42:52;20.02;;;13.32;;
22160;SDS011;49035;48.812;11.762;2022-11-06T11:45:18;18.77;;;11.98;;
22160;SDS011;49035;48.812;11.762;2022-11-06T11:47:46;18.70;;;11.75;;
22160;SDS011;49035;48.812;11.762;2022-11-06T11:52:43;19.40;;;12.40;;
22160;SDS011;49035;48.812;11.762;2022-11-06T11:55:13;17.73;;;11.40;;
22160;SDS011;49035;48.812;11.762;2022-11-06T11:57:47;21.27;;;12.30;;
22160;SDS011;49035;48.812;11.762;2022-11-06T12:00:19;22.50;;;13.52;;
22160;SDS011;49035;48.812;11.762;2022-11-06T12:02:47;20.65;;;12.88;;
22160;SDS011;49035;48.812;11.762;2022-11-06T12:05:20;22.25;;;13.50;;
22160;SDS011;49035;48.812;11.762;2022-11-06T12:07:57;19.58;;;12.35;;
22160;SDS011;49035;48.812;11.762;2022-11-06T12:10:40;21.33;;;12.75;;
22160;SDS011;49035;48.812;11.762;2022-11-06T12:13:17;19.63;;;12.35;;
22160;SDS011;49035;48.812;11.762;2022-11-06T12:15:58;21.33;;;13.50;;
22160;SDS011;49035;48.812;11.762;2022-11-06T12:18:27;26.10;;;13.57;;
22160;SDS011;49035;48.812;11.762;2022-11-06T12:21:13;22.75;;;13.73;;
22160;SDS011;49035;48.812;11.762;2022-11-06T12:26:35;19.27;;;12.57;;
22160;SDS011;49035;48.812;11.762;2022-11-06T12:29:10;19.33;;;12.30;;
22160;SDS011;49035;48.812;11.762;2022-11-06T12:34:22;20.95;;;13.35;;
22160;SDS011;49035;48.812;11.762;2022-11-06T12:40:18;20.00;;;12.75;;
22160;SDS011;49035;48.812;11.762;2022-11-06T12:45:20;19.25;;;11.85;;
22160;SDS011;49035;48.812;11.762;2022-11-06T12:47:58;19.40;;;12.18;;
22160;SDS011;49035;48.812;11.762;2022-11-06T12:50:55;17.63;;;11.35;;
22160;SDS011;49035;48.812;11.762;2022-11-06T12:53:47;19.52;;;11.93;;
22160;SDS011;49035;48.812;11.762;2022-11-06T12:56:24;35.10;;;21.27;;
22160;SDS011;49035;48.812;11.762;2022-11-06T13:01:54;18.88;;;12.48;;
22160;SDS011;49035;48.812;11.762;2022-11-06T13:20:44;16.92;;;11.23;;
22160;SDS011;49035;48.812;11.762;2022-11-06T13:23:55;17.00;;;10.73;;
22160;SDS011;49035;48.812;11.762;2022-11-06T13:26:16;16.92;;;11.20;;
22160;SDS011;49035;48.812;11.762;2022-11-06T13:28:51;18.85;;;10.73;;
22160;SDS011;49035;48.812;11.762;2022-11-06T13:31:24;16.13;;;11.10;;
22160;SDS011;49035;48.812;11.762;2022-11-06T13:34:01;14.93;;;10.40;;
22160;SDS011;49035;48.812;11.762;2022-11-06T13:36:29;14.65;;;9.75;;
22160;SDS011;49035;48.812;11.762;2022-11-06T13:38:59;15.75;;;10.43;;
22160;SDS011;49035;48.812;11.762;2022-11-06T13:41:31;16.83;;;10.80;;
22160;SDS011;49035;48.812;11.762;2022-11-06T13:44:05;17.58;;;11.25;;
22160;SDS011;49035;48.812;11.762;2022-11-06T13:54:33;17.23;;;10.48;;
22160;SDS011;49035;48.812;11.762;2022-11-06T13:57:11;18.33;;;11.68;;
22160;SDS011;49035;48.812;11.762;2022-11-06T14:05:48;22.15;;;13.40;;
22160;SDS011;49035;48.812;11.762;2022-11-06T14:08:20;17.42;;;10.90;;
22160;SDS011;49035;48.812;11.762;2022-11-06T14:13:25;18.08;;;11.35;;
22160;SDS011;49035;48.812;11.762;2022-11-06T14:18:38;17.70;;;11.07;;
22160;SDS011;49035;48.812;11.762;2022-11-06T14:32:10;17.08;;;10.85;;
22160;SDS011;49035;48.812;11.762;2022-11-06T14:34:42;16.80;;;11.65;;
22160;SDS011;49035;48.812;11.762;2022-11-06T14:45:14;17.17;;;12.00;;
22160;SDS011;49035;48.812;11.762;2022-11-06T14:47:48;18.90;;;11.77;;
22160;SDS011;49035;48.812;11.762;2022-11-06T14:52:54;19.65;;;11.95;;
22160;SDS011;49035;48.812;11.762;2022-11-06T14:58:23;15.20;;;10.15;;
22160;SDS011;49035;48.812;11.762;2022-11-06T15:11:47;17.63;;;11.13;;
22160;SDS011;49035;48.812;11.762;2022-11-06T15:16:36;20.77;;;11.23;;
22160;SDS011;49035;48.812;11.762;2022-11-06T15:19:11;17.27;;;11.55;;
22160;SDS011;49035;48.812;11.762;2022-11-06T15:21:49;16.10;;;10.87;;
22160;SDS011;49035;48.812;11.762;2022-11-06T15:24:27;19.58;;;11.73;;
22160;SDS011;49035;48.812;11.762;2022-11-06T15:27:02;16.33;;;10.90;;
22160;SDS011;49035;48.812;11.762;2022-11-06T15:29:36;15.68;;;10.73;;
22160;SDS011;49035;48.812;11.762;2022-11-06T15:32:17;16.60;;;10.63;;
22160;SDS011;49035;48.812;11.762;2022-11-06T15:37:29;19.87;;;11.80;;
22160;SDS011;49035;48.812;11.762;2022-11-06T15:39:56;17.33;;;10.67;;
22160;SDS011;49035;48.812;11.762;2022-11-06T15:42:24;16.00;;;10.47;;
22160;SDS011;49035;48.812;11.762;2022-11-06T15:44:51;17.37;;;11.23;;
22160;SDS011;49035;48.812;11.762;2022-11-06T15:47:31;16.23;;;10.43;;
22160;SDS011;49035;48.812;11.762;2022-11-06T15:52:37;17.57;;;10.83;;
22160;SDS011;49035;48.812;11.762;2022-11-06T15:55:03;15.70;;;9.47;;
22160;SDS011;49035;48.812;11.762;2022-11-06T15:57:29;17.60;;;11.27;;
22160;SDS011;49035;48.812;11.762;2022-11-06T16:00:09;18.83;;;11.07;;
22160;SDS011;49035;48.812;11.762;2022-11-06T16:02:45;21.80;;;11.30;;
22160;SDS011;49035;48.812;11.762;2022-11-06T16:05:14;20.27;;;11.53;;
22160;SDS011;49035;48.812;11.762;2022-11-06T16:07:41;16.50;;;10.60;;
22160;SDS011;49035;48.812;11.762;2022-11-06T16:10:12;17.13;;;10.60;;
22160;SDS011;49035;48.812;11.762;2022-11-06T16:12:45;18.37;;;11.27;;
22160;SDS011;49035;48.812;11.762;2022-11-06T16:18:11;16.60;;;10.60;;
22160;SDS011;49035;48.812;11.762;2022-11-06T16:21:06;27.43;;;14.27;;
22160;SDS011;49035;48.812;11.762;2022-11-06T16:26:17;17.83;;;10.33;;
22160;SDS011;49035;48.812;11.762;2022-11-06T16:28:49;22.73;;;13.17;;
22160;SDS011;49035;48.812;11.762;2022-11-06T16:31:20;22.50;;;12.50;;
22160;SDS011;49035;48.812;11.762;2022-11-06T16:33:54;22.03;;;12.87;;
22160;SDS011;49035;48.812;11.762;2022-11-06T16:36:20;18.93;;;10.97;;
22160;SDS011;49035;48.812;11.762;2022-11-06T16:38:46;19.93;;;10.80;;
22160;SDS011;49035;48.812;11.762;2022-11-06T16:41:16;18.57;;;10.97;;
22160;SDS011;49035;48.812;11.762;2022-11-06T16:54:51;15.47;;;9.83;;
22160;SDS011;49035;48.812;11.762;2022-11-06T16:57:24;23.87;;;12.30;;
22160;SDS011;49035;48.812;11.762;2022-11-06T16:59:53;25.37;;;13.80;;
22160;SDS011;49035;48.812;11.762;2022-11-06T17:02:30;27.77;;;15.27;;
22160;SDS011;49035;48.812;11.762;2022-11-06T17:05:12;31.63;;;17.17;;
22160;SDS011;49035;48.812;11.762;2022-11-06T17:07:38;33.47;;;18.97;;
22160;SDS011;49035;48.812;11.762;2022-11-06T17:10:24;34.10;;;16.87;;
22160;SDS011;49035;48.812;11.762;2022-11-06T17:13:18;27.53;;;15.20;;
22160;SDS011;49035;48.812;11.762;2022-11-06T17:15:56;28.87;;;15.73;;
22160;SDS011;49035;48.812;11.762;2022-11-06T17:20:57;20.43;;;11.73;;
22160;SDS011;49035;48.812;11.762;2022-11-06T17:23:25;22.33;;;12.93;;
22160;SDS011;49035;48.812;11.762;2022-11-06T17:25:52;24.23;;;14.60;;
22160;SDS011;49035;48.812;11.762;2022-11-06T17:28:20;27.70;;;16.50;;